sensor_id;sensor_type;location;lat;lon;timestamp;P1;durP1;ratioP1;P2;durP2;ratioP2
29876;SDS011;16750;49.002;9.204;2022-07-10T00:01:11;7.82;;;5.18;;
29876;SDS011;16750;49.002;9.204;2022-07-10T00:03:37;8.00;;;5.50;;
29876;SDS011;16750;49.002;9.204;2022-07-10T00:06:04;6.32;;;5.30;;
29876;SDS011;16750;49.002;9.204;2022-07-10T00:08:29;7.53;;;4.90;;
29876;SDS011;16750;49.002;9.204;2022-07-10T00:10:55;5.20;;;3.88;;
29876;SDS011;16750;49.002;9.204;2022-07-10T00:13:20;4.80;;;3.67;;
29876;SDS011;16750;49.002;9.204;2022-07-10T00:15:46;5.32;;;3.28;;
29876;SDS011;16750;49.002;9.204;2022-07-10T00:18:11;5.15;;;3.47;;
29876;SDS011;16750;49.002;9.204;2022-07-10T00:20:36;5.70;;;3.88;;
29876;SDS011;16750;49.002;9.204;2022-07-10T00:23:02;4.28;;;3.33;;
29876;SDS011;16750;49.002;9.204;2022-07-10T00:25:28;5.60;;;3.38;;
29876;SDS011;16750;49.002;9.204;2022-07-10T00:27:53;6.63;;;3.65;;
29876;SDS011;16750;49.002;9.204;2022-07-10T00:30:19;3.90;;;3.40;;
29876;SDS011;16750;49.002;9.204;2022-07-10T00:32:44;5.07;;;3.40;;
29876;SDS011;16750;49.002;9.204;2022-07-10T00:35:10;4.93;;;3.33;;
29876;SDS011;16750;49.002;9.204;2022-07-10T00:37:35;4.85;;;3.30;;
29876;SDS011;16750;49.002;9.204;2022-07-10T00:40:01;4.30;;;3.42;;
29876;SDS011;16750;49.002;9.204;2022-07-10T00:42:29;5.50;;;3.30;;
29876;SDS011;16750;49.002;9.204;2022-07-10T00:44:55;5.75;;;4.00;;
29876;SDS011;16750;49.002;9.204;2022-07-10T00:47:21;5.10;;;3.28;;
29876;SDS011;16750;49.002;9.204;2022-07-10T00:49:47;4.88;;;3.45;;
29876;SDS011;16750;49.002;9.204;2022-07-10T00:52:13;4.43;;;3.80;;
29876;SDS011;16750;49.002;9.204;2022-07-10T00:54:45;5.63;;;3.95;;
29876;SDS011;16750;49.002;9.204;2022-07-10T00:57:13;4.95;;;3.58;;
29876;SDS011;16750;49.002;9.204;2022-07-10T00:59:42;4.97;;;3.40;;
29876;SDS011;16750;49.002;9.204;2022-07-10T01:02:09;5.13;;;3.63;;
29876;SDS011;16750;49.002;9.204;2022-07-10T01:04:35;4.95;;;4.10;;
29876;SDS011;16750;49.002;9.204;2022-07-10T01:07:00;6.53;;;4.47;;
29876;SDS011;16750;49.002;9.204;2022-07-10T01:09:26;5.10;;;4.18;;
29876;SDS011;16750;49.002;9.204;2022-07-10T01:11:54;6.55;;;4.10;;
29876;SDS011;16750;49.002;9.204;2022-07-10T01:14:21;26.83;;;17.17;;
29876;SDS011;16750;49.002;9.204;2022-07-10T01:16:46;11.52;;;9.07;;
29876;SDS011;16750;49.002;9.204;2022-07-10T01:19:12;9.02;;;6.72;;
29876;SDS011;16750;49.002;9.204;2022-07-10T01:21:37;7.13;;;5.03;;
29876;SDS011;16750;49.002;9.204;2022-07-10T01:24:04;8.88;;;5.07;;
29876;SDS011;16750;49.002;9.204;2022-07-10T01:26:32;8.07;;;4.63;;
29876;SDS011;16750;49.002;9.204;2022-07-10T01:28:58;7.43;;;4.72;;
29876;SDS011;16750;49.002;9.204;2022-07-10T01:31:26;5.72;;;4.70;;
29876;SDS011;16750;49.002;9.204;2022-07-10T01:33:52;5.55;;;4.88;;
29876;SDS011;16750;49.002;9.204;2022-07-10T01:36:18;6.53;;;5.05;;
29876;SDS011;16750;49.002;9.204;2022-07-10T01:38:45;6.30;;;5.10;;
29876;SDS011;16750;49.002;9.204;2022-07-10T01:41:10;7.10;;;5.03;;
29876;SDS011;16750;49.002;9.204;2022-07-10T01:43:36;7.13;;;4.65;;
29876;SDS011;16750;49.002;9.204;2022-07-10T01:46:02;7.03;;;5.00;;
29876;SDS011;16750;49.002;9.204;2022-07-10T01:48:29;6.70;;;4.57;;
29876;SDS011;16750;49.002;9.204;2022-07-10T01:50:55;6.57;;;4.80;;
29876;SDS011;16750;49.002;9.204;2022-07-10T01:53:21;5.97;;;4.32;;
29876;SDS011;16750;49.002;9.204;2022-07-10T01:55:47;6.07;;;4.88;;
29876;SDS011;16750;49.002;9.204;2022-07-10T01:58:12;5.93;;;4.18;;
29876;SDS011;16750;49.002;9.204;2022-07-10T02:00:38;6.18;;;4.00;;
29876;SDS011;16750;49.002;9.204;2022-07-10T02:03:03;6.97;;;4.30;;
29876;SDS011;16750;49.002;9.204;2022-07-10T02:05:47;5.70;;;4.90;;
29876;SDS011;16750;49.002;9.204;2022-07-10T02:08:12;7.70;;;4.18;;
29876;SDS011;16750;49.002;9.204;2022-07-10T02:10:38;5.50;;;4.20;;
29876;SDS011;16750;49.002;9.204;2022-07-10T02:13:03;6.45;;;4.50;;
29876;SDS011;16750;49.002;9.204;2022-07-10T02:15:29;8.43;;;6.00;;
29876;SDS011;16750;49.002;9.204;2022-07-10T02:17:54;7.25;;;5.40;;
29876;SDS011;16750;49.002;9.204;2022-07-10T02:20:19;8.52;;;4.70;;
29876;SDS011;16750;49.002;9.204;2022-07-10T02:22:45;7.05;;;4.40;;
29876;SDS011;16750;49.002;9.204;2022-07-10T02:25:10;6.25;;;4.90;;
29876;SDS011;16750;49.002;9.204;2022-07-10T02:27:36;8.02;;;4.82;;
29876;SDS011;16750;49.002;9.204;2022-07-10T02:30:01;6.15;;;4.28;;
29876;SDS011;16750;49.002;9.204;2022-07-10T02:32:27;8.45;;;4.72;;
29876;SDS011;16750;49.002;9.204;2022-07-10T02:34:52;6.88;;;5.00;;
29876;SDS011;16750;49.002;9.204;2022-07-10T02:37:18;6.03;;;4.45;;
29876;SDS011;16750;49.002;9.204;2022-07-10T02:39:43;9.02;;;4.70;;
29876;SDS011;16750;49.002;9.204;2022-07-10T02:42:09;5.05;;;4.03;;
29876;SDS011;16750;49.002;9.204;2022-07-10T02:44:35;5.70;;;3.80;;
29876;SDS011;16750;49.002;9.204;2022-07-10T02:47:00;5.40;;;3.65;;
29876;SDS011;16750;49.002;9.204;2022-07-10T02:49:25;6.15;;;4.30;;
29876;SDS011;16750;49.002;9.204;2022-07-10T02:51:51;6.13;;;4.80;;
29876;SDS011;16750;49.002;9.204;2022-07-10T02:54:16;10.43;;;7.70;;
29876;SDS011;16750;49.002;9.204;2022-07-10T02:56:41;8.15;;;7.20;;
29876;SDS011;16750;49.002;9.204;2022-07-10T02:59:07;11.32;;;7.43;;
29876;SDS011;16750;49.002;9.204;2022-07-10T03:01:33;9.93;;;6.75;;
29876;SDS011;16750;49.002;9.204;2022-07-10T03:03:58;11.38;;;5.68;;
29876;SDS011;16750;49.002;9.204;2022-07-10T03:06:23;8.50;;;5.65;;
29876;SDS011;16750;49.002;9.204;2022-07-10T03:08:49;6.13;;;4.90;;
29876;SDS011;16750;49.002;9.204;2022-07-10T03:11:14;7.18;;;4.85;;
29876;SDS011;16750;49.002;9.204;2022-07-10T03:13:40;8.23;;;4.68;;
29876;SDS011;16750;49.002;9.204;2022-07-10T03:16:05;5.82;;;4.68;;
29876;SDS011;16750;49.002;9.204;2022-07-10T03:18:31;6.38;;;4.43;;
29876;SDS011;16750;49.002;9.204;2022-07-10T03:20:57;6.40;;;4.50;;
29876;SDS011;16750;49.002;9.204;2022-07-10T03:23:22;6.35;;;4.07;;
29876;SDS011;16750;49.002;9.204;2022-07-10T03:25:48;5.63;;;4.18;;
29876;SDS011;16750;49.002;9.204;2022-07-10T03:28:16;5.90;;;4.50;;
29876;SDS011;16750;49.002;9.204;2022-07-10T03:30:41;6.60;;;4.50;;
29876;SDS011;16750;49.002;9.204;2022-07-10T03:33:07;5.22;;;4.20;;
29876;SDS011;16750;49.002;9.204;2022-07-10T03:35:33;5.40;;;4.30;;
29876;SDS011;16750;49.002;9.204;2022-07-10T03:37:58;6.38;;;4.18;;
29876;SDS011;16750;49.002;9.204;2022-07-10T03:40:23;5.60;;;4.10;;
29876;SDS011;16750;49.002;9.204;2022-07-10T03:42:49;5.70;;;4.32;;
29876;SDS011;16750;49.002;9.204;2022-07-10T03:45:14;4.60;;;3.83;;
29876;SDS011;16750;49.002;9.204;2022-07-10T03:47:40;6.57;;;4.07;;
29876;SDS011;16750;49.002;9.204;2022-07-10T03:50:05;8.07;;;4.38;;
29876;SDS011;16750;49.002;9.204;2022-07-10T03:52:31;6.57;;;4.80;;
29876;SDS011;16750;49.002;9.204;2022-07-10T03:54:56;7.85;;;4.18;;
29876;SDS011;16750;49.002;9.204;2022-07-10T03:57:22;7.10;;;4.65;;
29876;SDS011;16750;49.002;9.204;2022-07-10T04:00:06;6.18;;;4.32;;
29876;SDS011;16750;49.002;9.204;2022-07-10T04:02:37;5.80;;;4.40;;
29876;SDS011;16750;49.002;9.204;2022-07-10T04:05:06;5.53;;;4.10;;
29876;SDS011;16750;49.002;9.204;2022-07-10T04:07:33;6.43;;;4.15;;
29876;SDS011;16750;49.002;9.204;2022-07-10T04:09:58;6.15;;;4.30;;
29876;SDS011;16750;49.002;9.204;2022-07-10T04:12:24;5.57;;;4.18;;
29876;SDS011;16750;49.002;9.204;2022-07-10T04:14:49;5.88;;;4.10;;
29876;SDS011;16750;49.002;9.204;2022-07-10T04:17:17;5.78;;;3.80;;
29876;SDS011;16750;49.002;9.204;2022-07-10T04:19:43;6.63;;;4.45;;
29876;SDS011;16750;49.002;9.204;2022-07-10T04:22:08;6.47;;;4.65;;
29876;SDS011;16750;49.002;9.204;2022-07-10T04:24:34;7.20;;;4.40;;
29876;SDS011;16750;49.002;9.204;2022-07-10T04:27:00;6.38;;;4.20;;
29876;SDS011;16750;49.002;9.204;2022-07-10T04:29:26;6.97;;;4.45;;
29876;SDS011;16750;49.002;9.204;2022-07-10T04:31:51;5.57;;;4.15;;
29876;SDS011;16750;49.002;9.204;2022-07-10T04:34:17;4.75;;;3.90;;
29876;SDS011;16750;49.002;9.204;2022-07-10T04:36:42;5.15;;;3.88;;
29876;SDS011;16750;49.002;9.204;2022-07-10T04:39:08;7.28;;;4.03;;
29876;SDS011;16750;49.002;9.204;2022-07-10T04:41:33;5.28;;;3.88;;
29876;SDS011;16750;49.002;9.204;2022-07-10T04:43:59;7.13;;;4.00;;
29876;SDS011;16750;49.002;9.204;2022-07-10T04:46:24;5.03;;;3.20;;
29876;SDS011;16750;49.002;9.204;2022-07-10T04:48:49;6.88;;;3.35;;
29876;SDS011;16750;49.002;9.204;2022-07-10T04:51:15;8.93;;;3.00;;
29876;SDS011;16750;49.002;9.204;2022-07-10T04:53:41;4.20;;;2.38;;
29876;SDS011;16750;49.002;9.204;2022-07-10T04:56:06;4.90;;;2.50;;
29876;SDS011;16750;49.002;9.204;2022-07-10T04:58:32;3.75;;;2.38;;
29876;SDS011;16750;49.002;9.204;2022-07-10T05:00:57;3.78;;;2.22;;
29876;SDS011;16750;49.002;9.204;2022-07-10T05:03:22;3.65;;;2.20;;
29876;SDS011;16750;49.002;9.204;2022-07-10T05:05:48;4.13;;;2.22;;
29876;SDS011;16750;49.002;9.204;2022-07-10T05:08:13;4.38;;;1.95;;
29876;SDS011;16750;49.002;9.204;2022-07-10T05:10:39;4.32;;;1.95;;
29876;SDS011;16750;49.002;9.204;2022-07-10T05:13:05;3.40;;;2.08;;
29876;SDS011;16750;49.002;9.204;2022-07-10T05:15:31;5.35;;;2.20;;
29876;SDS011;16750;49.002;9.204;2022-07-10T05:17:56;4.60;;;2.30;;
29876;SDS011;16750;49.002;9.204;2022-07-10T05:20:22;5.15;;;2.40;;
29876;SDS011;16750;49.002;9.204;2022-07-10T05:22:47;4.03;;;2.50;;
29876;SDS011;16750;49.002;9.204;2022-07-10T05:25:13;4.93;;;2.30;;
29876;SDS011;16750;49.002;9.204;2022-07-10T05:27:38;5.13;;;2.25;;
29876;SDS011;16750;49.002;9.204;2022-07-10T05:30:03;4.35;;;2.13;;
29876;SDS011;16750;49.002;9.204;2022-07-10T05:32:29;5.38;;;2.47;;
29876;SDS011;16750;49.002;9.204;2022-07-10T05:34:57;4.85;;;2.05;;
29876;SDS011;16750;49.002;9.204;2022-07-10T05:37:23;4.40;;;2.15;;
29876;SDS011;16750;49.002;9.204;2022-07-10T05:39:49;6.32;;;2.38;;
29876;SDS011;16750;49.002;9.204;2022-07-10T05:42:14;4.05;;;2.30;;
29876;SDS011;16750;49.002;9.204;2022-07-10T05:44:40;5.22;;;2.38;;
29876;SDS011;16750;49.002;9.204;2022-07-10T05:47:05;6.22;;;2.33;;
29876;SDS011;16750;49.002;9.204;2022-07-10T05:49:32;5.70;;;2.67;;
29876;SDS011;16750;49.002;9.204;2022-07-10T05:51:57;4.57;;;2.20;;
29876;SDS011;16750;49.002;9.204;2022-07-10T05:54:23;6.70;;;2.28;;
29876;SDS011;16750;49.002;9.204;2022-07-10T05:56:48;5.68;;;2.03;;
29876;SDS011;16750;49.002;9.204;2022-07-10T05:59:14;9.18;;;2.50;;
29876;SDS011;16750;49.002;9.204;2022-07-10T06:01:39;6.10;;;2.45;;
29876;SDS011;16750;49.002;9.204;2022-07-10T06:04:05;4.25;;;2.25;;
29876;SDS011;16750;49.002;9.204;2022-07-10T06:06:31;5.28;;;2.42;;
29876;SDS011;16750;49.002;9.204;2022-07-10T06:08:56;5.00;;;2.30;;
29876;SDS011;16750;49.002;9.204;2022-07-10T06:11:24;5.82;;;2.33;;
29876;SDS011;16750;49.002;9.204;2022-07-10T06:13:49;6.47;;;2.50;;
29876;SDS011;16750;49.002;9.204;2022-07-10T06:16:14;4.28;;;1.80;;
29876;SDS011;16750;49.002;9.204;2022-07-10T06:18:40;4.10;;;1.75;;
29876;SDS011;16750;49.002;9.204;2022-07-10T06:21:05;3.58;;;1.80;;
29876;SDS011;16750;49.002;9.204;2022-07-10T06:23:30;6.65;;;2.22;;
29876;SDS011;16750;49.002;9.204;2022-07-10T06:25:56;6.43;;;1.98;;
29876;SDS011;16750;49.002;9.204;2022-07-10T06:28:21;5.35;;;1.83;;
29876;SDS011;16750;49.002;9.204;2022-07-10T06:30:47;6.15;;;1.83;;
29876;SDS011;16750;49.002;9.204;2022-07-10T06:33:13;4.55;;;1.75;;
29876;SDS011;16750;49.002;9.204;2022-07-10T06:35:38;6.70;;;1.95;;
29876;SDS011;16750;49.002;9.204;2022-07-10T06:38:04;6.05;;;1.80;;
29876;SDS011;16750;49.002;9.204;2022-07-10T06:40:29;5.38;;;1.60;;
29876;SDS011;16750;49.002;9.204;2022-07-10T06:42:57;5.55;;;1.38;;
29876;SDS011;16750;49.002;9.204;2022-07-10T06:45:24;2.22;;;1.00;;
29876;SDS011;16750;49.002;9.204;2022-07-10T06:47:49;4.68;;;1.48;;
29876;SDS011;16750;49.002;9.204;2022-07-10T06:50:21;4.40;;;1.25;;
29876;SDS011;16750;49.002;9.204;2022-07-10T06:52:47;5.57;;;1.20;;
29876;SDS011;16750;49.002;9.204;2022-07-10T06:55:13;4.40;;;1.30;;
29876;SDS011;16750;49.002;9.204;2022-07-10T06:57:39;4.57;;;1.65;;
29876;SDS011;16750;49.002;9.204;2022-07-10T07:00:05;5.78;;;1.83;;
29876;SDS011;16750;49.002;9.204;2022-07-10T07:02:31;4.57;;;1.60;;
29876;SDS011;16750;49.002;9.204;2022-07-10T07:04:57;3.65;;;1.05;;
29876;SDS011;16750;49.002;9.204;2022-07-10T07:07:22;3.67;;;1.40;;
29876;SDS011;16750;49.002;9.204;2022-07-10T07:09:47;5.30;;;1.50;;
29876;SDS011;16750;49.002;9.204;2022-07-10T07:12:15;3.63;;;1.40;;
29876;SDS011;16750;49.002;9.204;2022-07-10T07:14:42;6.22;;;1.77;;
29876;SDS011;16750;49.002;9.204;2022-07-10T07:17:08;5.30;;;1.65;;
29876;SDS011;16750;49.002;9.204;2022-07-10T07:19:36;4.53;;;1.38;;
29876;SDS011;16750;49.002;9.204;2022-07-10T07:22:20;3.47;;;1.25;;
29876;SDS011;16750;49.002;9.204;2022-07-10T07:25:04;3.45;;;1.70;;
29876;SDS011;16750;49.002;9.204;2022-07-10T07:27:30;5.22;;;1.58;;
29876;SDS011;16750;49.002;9.204;2022-07-10T07:29:57;3.47;;;1.20;;
29876;SDS011;16750;49.002;9.204;2022-07-10T07:32:22;5.00;;;1.10;;
29876;SDS011;16750;49.002;9.204;2022-07-10T07:34:48;3.80;;;1.35;;
29876;SDS011;16750;49.002;9.204;2022-07-10T07:37:13;3.55;;;1.10;;
29876;SDS011;16750;49.002;9.204;2022-07-10T07:39:39;4.97;;;1.17;;
29876;SDS011;16750;49.002;9.204;2022-07-10T07:42:04;4.25;;;1.15;;
29876;SDS011;16750;49.002;9.204;2022-07-10T07:44:29;3.55;;;1.10;;
29876;SDS011;16750;49.002;9.204;2022-07-10T07:46:55;3.65;;;1.17;;
29876;SDS011;16750;49.002;9.204;2022-07-10T07:49:21;3.80;;;1.10;;
29876;SDS011;16750;49.002;9.204;2022-07-10T07:51:47;4.18;;;1.40;;
29876;SDS011;16750;49.002;9.204;2022-07-10T07:54:13;3.60;;;1.02;;
29876;SDS011;16750;49.002;9.204;2022-07-10T07:56:40;3.72;;;1.15;;
29876;SDS011;16750;49.002;9.204;2022-07-10T07:59:05;5.20;;;1.17;;
29876;SDS011;16750;49.002;9.204;2022-07-10T08:01:31;2.95;;;0.95;;
29876;SDS011;16750;49.002;9.204;2022-07-10T08:03:56;3.35;;;0.95;;
29876;SDS011;16750;49.002;9.204;2022-07-10T08:06:22;5.47;;;1.10;;
29876;SDS011;16750;49.002;9.204;2022-07-10T08:08:47;4.28;;;0.93;;
29876;SDS011;16750;49.002;9.204;2022-07-10T08:11:12;3.22;;;0.80;;
29876;SDS011;16750;49.002;9.204;2022-07-10T08:13:38;2.53;;;0.70;;
29876;SDS011;16750;49.002;9.204;2022-07-10T08:16:03;3.17;;;1.05;;
29876;SDS011;16750;49.002;9.204;2022-07-10T08:18:29;5.85;;;0.85;;
29876;SDS011;16750;49.002;9.204;2022-07-10T08:20:55;3.92;;;0.90;;
29876;SDS011;16750;49.002;9.204;2022-07-10T08:23:20;4.18;;;1.17;;
29876;SDS011;16750;49.002;9.204;2022-07-10T08:25:45;3.42;;;0.80;;
29876;SDS011;16750;49.002;9.204;2022-07-10T08:28:11;3.15;;;0.80;;
29876;SDS011;16750;49.002;9.204;2022-07-10T08:30:37;3.90;;;0.95;;
29876;SDS011;16750;49.002;9.204;2022-07-10T08:33:02;4.03;;;0.88;;
29876;SDS011;16750;49.002;9.204;2022-07-10T08:35:28;2.83;;;1.05;;
29876;SDS011;16750;49.002;9.204;2022-07-10T08:37:53;6.03;;;1.08;;
29876;SDS011;16750;49.002;9.204;2022-07-10T08:40:19;4.13;;;0.80;;
29876;SDS011;16750;49.002;9.204;2022-07-10T08:42:46;2.85;;;0.80;;
29876;SDS011;16750;49.002;9.204;2022-07-10T08:45:12;3.97;;;0.90;;
29876;SDS011;16750;49.002;9.204;2022-07-10T08:47:38;5.65;;;1.05;;
29876;SDS011;16750;49.002;9.204;2022-07-10T08:55:37;4.07;;;1.00;;
29876;SDS011;16750;49.002;9.204;2022-07-10T08:58:03;4.88;;;0.90;;
29876;SDS011;16750;49.002;9.204;2022-07-10T09:00:32;5.10;;;1.08;;
29876;SDS011;16750;49.002;9.204;2022-07-10T09:02:58;2.10;;;0.63;;
29876;SDS011;16750;49.002;9.204;2022-07-10T09:05:23;3.53;;;0.90;;
29876;SDS011;16750;49.002;9.204;2022-07-10T09:07:50;2.28;;;0.80;;
29876;SDS011;16750;49.002;9.204;2022-07-10T09:10:20;3.85;;;0.80;;
29876;SDS011;16750;49.002;9.204;2022-07-10T09:12:58;2.70;;;0.80;;
29876;SDS011;16750;49.002;9.204;2022-07-10T09:15:26;2.92;;;0.70;;
29876;SDS011;16750;49.002;9.204;2022-07-10T09:20:32;3.20;;;0.88;;
29876;SDS011;16750;49.002;9.204;2022-07-10T09:23:21;2.67;;;0.80;;
29876;SDS011;16750;49.002;9.204;2022-07-10T09:25:47;2.90;;;0.95;;
29876;SDS011;16750;49.002;9.204;2022-07-10T09:28:13;4.07;;;1.02;;
29876;SDS011;16750;49.002;9.204;2022-07-10T09:30:41;3.75;;;0.77;;
29876;SDS011;16750;49.002;9.204;2022-07-10T09:43:48;3.30;;;0.65;;
29876;SDS011;16750;49.002;9.204;2022-07-10T09:46:18;2.20;;;0.73;;
29876;SDS011;16750;49.002;9.204;2022-07-10T09:48:45;3.35;;;0.82;;
29876;SDS011;16750;49.002;9.204;2022-07-10T09:51:11;3.95;;;0.80;;
29876;SDS011;16750;49.002;9.204;2022-07-10T09:53:40;5.20;;;0.80;;
29876;SDS011;16750;49.002;9.204;2022-07-10T09:56:07;4.20;;;0.88;;
29876;SDS011;16750;49.002;9.204;2022-07-10T09:58:34;4.75;;;0.90;;
29876;SDS011;16750;49.002;9.204;2022-07-10T10:01:01;5.50;;;0.90;;
29876;SDS011;16750;49.002;9.204;2022-07-10T10:03:28;2.22;;;0.70;;
29876;SDS011;16750;49.002;9.204;2022-07-10T10:05:59;7.40;;;1.10;;
29876;SDS011;16750;49.002;9.204;2022-07-10T10:08:29;1.95;;;0.80;;
29876;SDS011;16750;49.002;9.204;2022-07-10T10:11:02;5.97;;;0.90;;
29876;SDS011;16750;49.002;9.204;2022-07-10T10:13:29;2.65;;;0.77;;
29876;SDS011;16750;49.002;9.204;2022-07-10T10:15:57;4.47;;;0.85;;
29876;SDS011;16750;49.002;9.204;2022-07-10T10:18:23;2.92;;;0.82;;
29876;SDS011;16750;49.002;9.204;2022-07-10T10:20:51;4.72;;;0.85;;
29876;SDS011;16750;49.002;9.204;2022-07-10T10:23:18;3.10;;;0.70;;
29876;SDS011;16750;49.002;9.204;2022-07-10T10:25:49;4.72;;;0.95;;
29876;SDS011;16750;49.002;9.204;2022-07-10T10:28:20;3.72;;;0.80;;
29876;SDS011;16750;49.002;9.204;2022-07-10T10:30:48;4.38;;;0.90;;
29876;SDS011;16750;49.002;9.204;2022-07-10T10:35:56;2.55;;;0.80;;
29876;SDS011;16750;49.002;9.204;2022-07-10T10:38:22;3.00;;;0.80;;
29876;SDS011;16750;49.002;9.204;2022-07-10T10:40:47;4.13;;;1.38;;
29876;SDS011;16750;49.002;9.204;2022-07-10T10:43:19;3.15;;;0.95;;
29876;SDS011;16750;49.002;9.204;2022-07-10T10:45:47;3.78;;;0.80;;
29876;SDS011;16750;49.002;9.204;2022-07-10T10:48:13;5.15;;;1.27;;
29876;SDS011;16750;49.002;9.204;2022-07-10T10:50:46;4.50;;;1.10;;
29876;SDS011;16750;49.002;9.204;2022-07-10T10:53:21;2.33;;;0.80;;
29876;SDS011;16750;49.002;9.204;2022-07-10T10:58:25;3.53;;;0.90;;
29876;SDS011;16750;49.002;9.204;2022-07-10T11:00:52;3.75;;;1.00;;
29876;SDS011;16750;49.002;9.204;2022-07-10T11:03:18;5.30;;;0.80;;
29876;SDS011;16750;49.002;9.204;2022-07-10T11:05:46;2.78;;;0.90;;
29876;SDS011;16750;49.002;9.204;2022-07-10T11:08:12;2.88;;;0.88;;
29876;SDS011;16750;49.002;9.204;2022-07-10T11:13:13;3.05;;;0.85;;
29876;SDS011;16750;49.002;9.204;2022-07-10T11:15:44;2.63;;;0.75;;
29876;SDS011;16750;49.002;9.204;2022-07-10T11:18:15;3.75;;;0.75;;
29876;SDS011;16750;49.002;9.204;2022-07-10T11:20:44;3.30;;;0.90;;
29876;SDS011;16750;49.002;9.204;2022-07-10T11:29:04;2.65;;;0.80;;
29876;SDS011;16750;49.002;9.204;2022-07-10T11:31:33;3.63;;;0.80;;
29876;SDS011;16750;49.002;9.204;2022-07-10T11:34:09;3.50;;;0.70;;
29876;SDS011;16750;49.002;9.204;2022-07-10T11:36:38;2.97;;;0.68;;
29876;SDS011;16750;49.002;9.204;2022-07-10T11:39:05;3.05;;;0.60;;
29876;SDS011;16750;49.002;9.204;2022-07-10T11:41:32;2.88;;;0.68;;
29876;SDS011;16750;49.002;9.204;2022-07-10T11:43:58;3.75;;;0.90;;
29876;SDS011;16750;49.002;9.204;2022-07-10T11:46:25;2.90;;;0.75;;
29876;SDS011;16750;49.002;9.204;2022-07-10T11:48:52;3.67;;;0.80;;
29876;SDS011;16750;49.002;9.204;2022-07-10T11:51:36;4.40;;;0.90;;
29876;SDS011;16750;49.002;9.204;2022-07-10T11:56:37;3.45;;;0.70;;
29876;SDS011;16750;49.002;9.204;2022-07-10T11:59:13;3.33;;;0.70;;
29876;SDS011;16750;49.002;9.204;2022-07-10T12:01:49;2.95;;;0.70;;
29876;SDS011;16750;49.002;9.204;2022-07-10T12:04:17;2.85;;;0.75;;
29876;SDS011;16750;49.002;9.204;2022-07-10T12:06:49;1.73;;;0.70;;
29876;SDS011;16750;49.002;9.204;2022-07-10T12:09:15;5.45;;;0.63;;
29876;SDS011;16750;49.002;9.204;2022-07-10T12:11:42;3.30;;;0.65;;
29876;SDS011;16750;49.002;9.204;2022-07-10T12:14:10;4.38;;;0.80;;
29876;SDS011;16750;49.002;9.204;2022-07-10T12:16:42;3.78;;;0.80;;
29876;SDS011;16750;49.002;9.204;2022-07-10T12:19:10;1.80;;;0.50;;
29876;SDS011;16750;49.002;9.204;2022-07-10T12:21:38;3.03;;;0.65;;
29876;SDS011;16750;49.002;9.204;2022-07-10T12:24:04;3.67;;;1.10;;
29876;SDS011;16750;49.002;9.204;2022-07-10T12:26:33;4.18;;;0.88;;
29876;SDS011;16750;49.002;9.204;2022-07-10T12:29:00;4.32;;;0.88;;
29876;SDS011;16750;49.002;9.204;2022-07-10T12:31:27;3.13;;;0.50;;
29876;SDS011;16750;49.002;9.204;2022-07-10T12:33:55;3.45;;;0.80;;
29876;SDS011;16750;49.002;9.204;2022-07-10T12:39:16;2.30;;;0.50;;
29876;SDS011;16750;49.002;9.204;2022-07-10T12:41:52;2.67;;;0.50;;
29876;SDS011;16750;49.002;9.204;2022-07-10T12:47:03;3.97;;;0.70;;
29876;SDS011;16750;49.002;9.204;2022-07-10T12:52:31;2.60;;;0.65;;
29876;SDS011;16750;49.002;9.204;2022-07-10T12:57:46;2.58;;;0.60;;
29876;SDS011;16750;49.002;9.204;2022-07-10T13:00:15;2.28;;;0.52;;
29876;SDS011;16750;49.002;9.204;2022-07-10T13:02:43;2.60;;;0.65;;
29876;SDS011;16750;49.002;9.204;2022-07-10T13:05:09;2.30;;;0.70;;
29876;SDS011;16750;49.002;9.204;2022-07-10T13:07:35;2.67;;;0.60;;
29876;SDS011;16750;49.002;9.204;2022-07-10T13:10:05;3.08;;;0.68;;
29876;SDS011;16750;49.002;9.204;2022-07-10T13:12:32;3.33;;;0.50;;
29876;SDS011;16750;49.002;9.204;2022-07-10T13:14:58;2.25;;;0.70;;
29876;SDS011;16750;49.002;9.204;2022-07-10T13:17:24;2.55;;;0.70;;
29876;SDS011;16750;49.002;9.204;2022-07-10T13:19:50;3.08;;;0.55;;
29876;SDS011;16750;49.002;9.204;2022-07-10T13:22:16;2.53;;;0.50;;
29876;SDS011;16750;49.002;9.204;2022-07-10T13:24:42;2.83;;;0.60;;
29876;SDS011;16750;49.002;9.204;2022-07-10T13:27:08;2.30;;;0.47;;
29876;SDS011;16750;49.002;9.204;2022-07-10T13:29:33;3.28;;;0.70;;
29876;SDS011;16750;49.002;9.204;2022-07-10T13:31:59;2.42;;;0.65;;
29876;SDS011;16750;49.002;9.204;2022-07-10T13:34:24;3.90;;;0.68;;
29876;SDS011;16750;49.002;9.204;2022-07-10T13:36:49;2.83;;;0.50;;
29876;SDS011;16750;49.002;9.204;2022-07-10T13:39:16;3.75;;;0.60;;
29876;SDS011;16750;49.002;9.204;2022-07-10T13:41:42;1.58;;;0.45;;
29876;SDS011;16750;49.002;9.204;2022-07-10T13:44:07;4.18;;;0.70;;
29876;SDS011;16750;49.002;9.204;2022-07-10T13:46:32;4.38;;;0.60;;
29876;SDS011;16750;49.002;9.204;2022-07-10T13:48:58;3.25;;;0.73;;
29876;SDS011;16750;49.002;9.204;2022-07-10T13:51:24;3.28;;;0.70;;
29876;SDS011;16750;49.002;9.204;2022-07-10T13:53:50;2.80;;;0.30;;
29876;SDS011;16750;49.002;9.204;2022-07-10T13:56:15;4.20;;;0.68;;
29876;SDS011;16750;49.002;9.204;2022-07-10T13:58:42;1.52;;;0.30;;
29876;SDS011;16750;49.002;9.204;2022-07-10T14:01:07;7.43;;;0.70;;
29876;SDS011;16750;49.002;9.204;2022-07-10T14:03:33;3.67;;;0.57;;
29876;SDS011;16750;49.002;9.204;2022-07-10T14:05:58;3.70;;;0.80;;
29876;SDS011;16750;49.002;9.204;2022-07-10T14:08:24;3.15;;;0.50;;
29876;SDS011;16750;49.002;9.204;2022-07-10T14:10:50;2.80;;;0.55;;
29876;SDS011;16750;49.002;9.204;2022-07-10T14:13:16;1.55;;;0.43;;
29876;SDS011;16750;49.002;9.204;2022-07-10T14:15:42;2.38;;;0.50;;
29876;SDS011;16750;49.002;9.204;2022-07-10T14:18:11;3.70;;;0.60;;
29876;SDS011;16750;49.002;9.204;2022-07-10T14:20:37;2.50;;;0.52;;
29876;SDS011;16750;49.002;9.204;2022-07-10T14:23:32;4.35;;;0.70;;
29876;SDS011;16750;49.002;9.204;2022-07-10T14:25:57;1.95;;;0.40;;
29876;SDS011;16750;49.002;9.204;2022-07-10T14:28:23;3.83;;;0.60;;
29876;SDS011;16750;49.002;9.204;2022-07-10T14:30:49;2.70;;;0.40;;
29876;SDS011;16750;49.002;9.204;2022-07-10T14:33:15;1.92;;;0.47;;
29876;SDS011;16750;49.002;9.204;2022-07-10T14:35:41;2.72;;;0.68;;
29876;SDS011;16750;49.002;9.204;2022-07-10T14:38:06;4.18;;;0.50;;
29876;SDS011;16750;49.002;9.204;2022-07-10T14:40:34;2.20;;;0.50;;
29876;SDS011;16750;49.002;9.204;2022-07-10T14:43:00;2.30;;;0.50;;
29876;SDS011;16750;49.002;9.204;2022-07-10T14:45:25;1.83;;;0.57;;
29876;SDS011;16750;49.002;9.204;2022-07-10T14:47:51;4.95;;;0.90;;
29876;SDS011;16750;49.002;9.204;2022-07-10T14:50:17;3.58;;;0.70;;
29876;SDS011;16750;49.002;9.204;2022-07-10T14:52:43;1.48;;;0.30;;
29876;SDS011;16750;49.002;9.204;2022-07-10T14:55:08;2.67;;;0.40;;
29876;SDS011;16750;49.002;9.204;2022-07-10T14:57:34;3.38;;;0.45;;
29876;SDS011;16750;49.002;9.204;2022-07-10T14:59:59;2.50;;;0.50;;
29876;SDS011;16750;49.002;9.204;2022-07-10T15:02:25;1.73;;;0.50;;
29876;SDS011;16750;49.002;9.204;2022-07-10T15:04:51;1.38;;;0.30;;
29876;SDS011;16750;49.002;9.204;2022-07-10T15:07:16;2.17;;;0.60;;
29876;SDS011;16750;49.002;9.204;2022-07-10T15:09:43;2.85;;;0.50;;
29876;SDS011;16750;49.002;9.204;2022-07-10T15:12:09;2.78;;;0.65;;
29876;SDS011;16750;49.002;9.204;2022-07-10T15:14:35;3.50;;;0.47;;
29876;SDS011;16750;49.002;9.204;2022-07-10T15:17:00;1.27;;;0.30;;
29876;SDS011;16750;49.002;9.204;2022-07-10T15:19:26;1.60;;;0.40;;
29876;SDS011;16750;49.002;9.204;2022-07-10T15:21:51;2.05;;;0.40;;
29876;SDS011;16750;49.002;9.204;2022-07-10T15:24:16;2.88;;;0.73;;
29876;SDS011;16750;49.002;9.204;2022-07-10T15:26:42;2.65;;;0.50;;
29876;SDS011;16750;49.002;9.204;2022-07-10T15:29:07;1.80;;;0.50;;
29876;SDS011;16750;49.002;9.204;2022-07-10T15:31:33;2.75;;;0.52;;